Time;durP1;ratioP1;P1;durP2;ratioP2;P2;SDS_P1;SDS_P2;PMS_P1;PMS_P2;Temp;Humidity;BMP_temperature;BMP_pressure;BME280_temperature;BME280_humidity;BME280_pressure;Samples;Min_cycle;Max_cycle;Signal;HPM_P1;HPM_P2
2022/06/23 00:02:28;;;;;;;2.55;1.63;;;;;;;23.78;43.73;101290.66;5056970;28;20740;-63
2022/06/23 00:04:57;;;;;;;2.17;1.70;;;;;;;23.78;44.14;101290.66;5056523;28;20645;-64
2022/06/23 00:07:30;;;;;;;2.10;1.70;;;;;;;23.79;43.80;101287.16;5049413;28;20473;-64
2022/06/23 00:09:57;;;;;;;2.00;1.60;;;;;;;23.80;44.01;101294.19;5035586;28;20379;-64
2022/06/23 00:12:23;;;;;;;4.72;1.70;;;;;;;23.80;43.84;101302.06;5048298;28;20395;-64
2022/06/23 00:14:53;;;;;;;1.87;1.60;;;;;;;23.80;44.37;101298.59;5051771;28;20382;-63
2022/06/23 00:17:37;;;;;;;3.08;1.58;;;;;;;23.79;43.47;101297.69;5035857;28;20441;-64
2022/06/23 00:20:12;;;;;;;2.85;1.70;;;;;;;23.79;43.98;101292.44;5019732;28;20868;-64
2022/06/23 00:22:40;;;;;;;2.80;1.85;;;;;;;23.78;43.56;101290.66;5053764;28;20402;-64
2022/06/23 00:25:09;;;;;;;2.20;1.70;;;;;;;23.77;44.46;101283.66;5018936;28;20736;-63
2022/06/23 00:27:38;;;;;;;2.28;1.80;;;;;;;23.79;43.62;101292.44;5030271;28;20395;-64
2022/06/23 00:30:26;;;;;;;3.47;1.77;;;;;;;23.78;44.34;101290.66;5035896;28;20482;-64
2022/06/23 00:32:54;;;;;;;1.90;1.70;;;;;;;23.79;43.97;101292.44;5035772;28;20487;-63
2022/06/23 00:35:19;;;;;;;2.17;1.63;;;;;;;23.78;43.87;101286.31;5035826;28;20372;-64
2022/06/23 00:37:52;;;;;;;1.90;1.70;;;;;;;23.77;43.78;101294.16;5035827;28;20391;-64
2022/06/23 00:40:22;;;;;;;2.20;1.77;;;;;;;23.77;43.97;101291.53;5046180;28;20382;-64
2022/06/23 00:42:57;;;;;;;2.35;2.00;;;;;;;23.74;44.45;101288.88;5046697;28;20401;-64
2022/06/23 00:45:39;;;;;;;2.70;1.73;;;;;;;23.61;44.42;101266.94;5036083;28;20410;-64
2022/06/23 00:48:39;;;;;;;5.07;1.98;;;;;;;23.79;44.35;101302.94;5027212;28;20433;-64
2022/06/23 00:51:13;;;;;;;5.15;1.90;;;;;;;23.77;43.94;101294.16;5034937;28;20803;-63
2022/06/23 00:53:49;;;;;;;4.68;1.80;;;;;;;23.77;44.65;101294.16;5034405;28;20760;-63
2022/06/23 00:56:37;;;;;;;3.22;1.80;;;;;;;23.53;43.91;101248.47;5036541;28;20924;-63
2022/06/23 00:59:04;;;;;;;3.05;1.90;;;;;;;23.80;44.38;101296.81;5043536;28;20757;-64
2022/06/23 01:01:57;;;;;;;4.50;1.80;;;;;;;23.80;44.50;101293.31;5055316;28;20374;-64
2022/06/23 01:04:35;;;;;;;2.92;1.77;;;;;;;23.77;44.02;101299.44;5055497;28;20389;-63
2022/06/23 01:07:18;;;;;;;2.37;1.70;;;;;;;23.78;44.33;101301.19;5055809;28;20849;-63
2022/06/23 01:09:57;;;;;;;3.03;1.87;;;;;;;23.79;44.48;101305.56;5051190;28;20750;-64
2022/06/23 01:12:27;;;;;;;3.70;1.80;;;;;;;23.78;44.35;101311.72;5046823;28;20391;-64
2022/06/23 01:14:58;;;;;;;3.20;2.10;;;;;;;23.78;44.47;101309.06;5036824;28;20849;-64
2022/06/23 01:17:32;;;;;;;2.83;1.83;;;;;;;23.77;43.86;101309.94;5034790;28;20391;-64
2022/06/23 01:19:57;;;;;;;3.25;1.77;;;;;;;23.68;44.19;101283.59;5047744;28;20393;-64
2022/06/23 01:22:52;;;;;;;3.37;2.20;;;;;;;23.77;44.55;101305.59;5062474;28;20938;-63
2022/06/23 01:25:17;;;;;;;3.40;1.90;;;;;;;23.78;44.49;101306.44;5046243;28;20400;-63
2022/06/23 01:28:05;;;;;;;3.70;1.80;;;;;;;23.66;44.29;101282.72;5066012;28;20362;-63
2022/06/23 01:30:49;;;;;;;4.43;2.10;;;;;;;23.75;44.52;101295.91;5033229;28;20777;-64
2022/06/23 01:33:22;;;;;;;4.30;2.20;;;;;;;23.77;43.78;101304.69;5053571;28;20385;-64
2022/06/23 01:35:57;;;;;;;3.25;1.90;;;;;;;23.77;43.90;101299.44;5054344;28;20385;-63
2022/06/23 01:38:52;;;;;;;3.92;1.80;;;;;;;23.78;44.49;101306.44;5066010;28;20481;-63
2022/06/23 01:41:20;;;;;;;2.90;1.83;;;;;;;23.78;44.27;101306.44;5057164;28;20856;-63
2022/06/23 01:44:07;;;;;;;2.80;2.00;;;;;;;23.75;43.81;101307.31;5017942;28;20395;-63
2022/06/23 01:46:38;;;;;;;2.45;1.80;;;;;;;23.77;44.24;101313.47;5052746;28;20443;-63
2022/06/23 01:49:18;;;;;;;2.72;2.00;;;;;;;23.78;43.92;101316.97;5070047;28;20793;-63
2022/06/23 01:51:50;;;;;;;3.47;2.10;;;;;;;23.78;44.20;101311.72;5069679;28;20379;-63
2022/06/23 01:54:23;;;;;;;2.78;1.90;;;;;;;23.78;44.16;101306.44;5053941;28;20386;-63
2022/06/23 01:57:02;;;;;;;2.83;1.90;;;;;;;23.78;44.06;101311.72;5041878;28;20466;-63
2022/06/23 01:59:56;;;;;;;3.13;1.90;;;;;;;23.77;44.45;101315.22;5033763;28;20982;-63
2022/06/23 02:02:32;;;;;;;2.57;1.70;;;;;;;23.78;43.74;101306.44;5045839;28;20943;-64
2022/06/23 02:05:12;;;;;;;3.60;2.20;;;;;;;23.78;44.54;101303.81;5049313;28;20450;-63
2022/06/23 02:07:42;;;;;;;2.70;1.90;;;;;;;23.78;43.90;101306.44;5053783;28;20406;-63
2022/06/23 02:10:20;;;;;;;2.38;1.77;;;;;;;23.80;44.01;101314.34;5036507;28;20393;-64
2022/06/23 02:12:52;;;;;;;3.17;1.83;;;;;;;23.76;43.82;101314.34;5051316;28;20393;-63
2022/06/23 02:15:24;;;;;;;3.23;2.00;;;;;;;23.76;44.35;101313.44;5053399;28;20465;-63
2022/06/23 02:17:55;;;;;;;3.47;2.15;;;;;;;23.75;43.69;101311.69;5030078;28;20453;-64
2022/06/23 02:20:32;;;;;;;3.05;1.90;;;;;;;23.76;44.09;101321.34;5032453;28;20808;-63
2022/06/23 02:23:04;;;;;;;2.37;1.90;;;;;;;23.74;44.44;101310.81;5042606;28;20453;-63
2022/06/23 02:28:24;;;;;;;3.25;2.00;;;;;;;23.75;44.46;101328.38;5067879;28;20433;-54
2022/06/23 02:31:12;;;;;;;2.85;2.10;;;;;;;23.76;44.29;101340.66;5067981;28;20409;-50
2022/06/23 02:33:46;;;;;;;3.08;1.92;;;;;;;23.76;43.90;101338.00;5072283;28;20385;-52
2022/06/23 02:36:24;;;;;;;3.60;2.17;;;;;;;23.77;43.54;101336.25;5067619;28;20421;-50
2022/06/23 02:38:54;;;;;;;2.67;2.00;;;;;;;23.78;43.32;101343.25;5071225;28;20785;-52
2022/06/23 02:41:27;;;;;;;2.10;1.90;;;;;;;23.75;43.82;101338.00;5063222;28;20422;-54
2022/06/23 02:44:19;;;;;;;3.80;2.15;;;;;;;23.78;43.35;101343.25;5072996;28;20479;-49
2022/06/23 02:47:02;;;;;;;2.83;2.00;;;;;;;23.78;43.93;101343.25;5066721;28;21015;-51
2022/06/23 02:49:41;;;;;;;2.80;2.05;;;;;;;23.77;43.74;101344.13;5085644;28;20393;-54
2022/06/23 02:52:25;;;;;;;2.75;2.10;;;;;;;23.77;44.27;101344.13;5072370;28;20411;-53
2022/06/23 02:55:02;;;;;;;3.03;1.92;;;;;;;23.75;44.49;101343.25;5078984;28;20405;-54
2022/06/23 02:57:27;;;;;;;2.80;1.98;;;;;;;23.75;44.43;101340.63;5089902;28;20793;-50
2022/06/23 03:00:05;;;;;;;3.20;2.00;;;;;;;23.75;44.13;101344.16;5091312;28;20377;-51
2022/06/23 03:02:38;;;;;;;2.90;1.83;;;;;;;23.75;43.74;101348.50;5083123;28;20936;-52
2022/06/23 03:05:16;;;;;;;2.90;1.90;;;;;;;23.78;43.97;101343.25;5045122;28;20393;-51
2022/06/23 03:08:07;;;;;;;3.35;2.15;;;;;;;23.77;43.84;101336.25;5069553;28;20390;-53
2022/06/23 03:10:48;;;;;;;2.70;1.90;;;;;;;23.79;44.00;101339.75;5071760;28;20396;-53
2022/06/23 03:13:35;;;;;;;2.15;1.80;;;;;;;23.79;44.02;101342.41;5072340;28;20470;-52
2022/06/23 03:16:30;;;;;;;3.05;1.80;;;;;;;23.79;43.54;101329.25;5073721;28;20392;-54
2022/06/23 03:19:10;;;;;;;3.10;2.20;;;;;;;23.80;44.23;101341.53;5072801;28;20879;-52
2022/06/23 03:21:45;;;;;;;3.65;1.88;;;;;;;23.79;43.78;101323.97;5062420;28;20392;-50
2022/06/23 03:24:15;;;;;;;4.05;2.20;;;;;;;23.78;43.81;101332.75;5060170;28;20383;-54
2022/06/23 03:26:54;;;;;;;3.15;2.08;;;;;;;23.77;43.48;101344.13;5055886;28;20400;-50
2022/06/23 03:29:22;;;;;;;3.00;2.03;;;;;;;23.70;44.09;101326.56;5081874;28;20873;-51
2022/06/23 03:32:06;;;;;;;5.05;2.03;;;;;;;23.76;44.47;101330.13;5088137;28;20400;-52
2022/06/23 03:34:43;;;;;;;3.25;2.00;;;;;;;23.77;44.00;101336.25;5075593;28;20855;-51
2022/06/23 03:37:15;;;;;;;2.78;1.90;;;;;;;23.77;43.38;101330.97;5069297;28;20387;-53
2022/06/23 03:42:37;;;;;;;2.85;2.05;;;;;;;23.79;43.34;101339.75;5077211;28;20395;-52
2022/06/23 03:45:39;;;;;;;2.58;1.95;;;;;;;23.80;43.96;101331.00;5075998;28;20400;-52
2022/06/23 03:48:13;;;;;;;3.55;2.15;;;;;;;23.80;43.94;101325.75;5090498;28;20401;-47
2022/06/23 03:51:03;;;;;;;2.40;2.10;;;;;;;23.79;44.26;101339.75;5089209;28;20675;-49
2022/06/23 03:57:08;;;;;;;2.93;1.80;;;;;;;23.79;44.02;101334.50;5050699;28;20408;-52
2022/06/23 03:59:56;;;;;;;3.13;2.00;;;;;;;23.79;43.69;101334.50;5019923;28;21077;-52
2022/06/23 04:02:28;;;;;;;3.47;2.17;;;;;;;23.77;44.21;101324.00;5034898;28;20457;-51
2022/06/23 04:05:08;;;;;;;3.38;2.00;;;;;;;23.67;43.89;101308.16;5036391;28;20478;-51
2022/06/23 04:07:49;;;;;;;2.55;2.00;;;;;;;23.80;43.47;101330.13;5033901;28;20477;-52
2022/06/23 04:10:25;;;;;;;3.58;2.05;;;;;;;23.79;43.73;101321.34;5053120;28;20474;-48
2022/06/23 04:12:56;;;;;;;2.53;1.92;;;;;;;23.81;44.07;101327.50;5051989;28;20702;-52
2022/06/23 04:15:28;;;;;;;2.92;1.73;;;;;;;23.82;43.49;101329.25;5035415;28;20372;-54
2022/06/23 04:18:01;;;;;;;2.45;1.88;;;;;;;23.85;44.12;101329.28;5031743;28;20877;-52
2022/06/23 04:20:35;;;;;;;2.70;1.83;;;;;;;23.84;44.09;101327.50;5037427;28;20460;-55
2022/06/23 04:23:05;;;;;;;2.75;1.90;;;;;;;23.85;44.17;101334.53;5049529;28;20862;-52
2022/06/23 04:25:42;;;;;;;2.85;1.90;;;;;;;23.87;44.11;101339.81;5050485;28;20864;-53
2022/06/23 04:28:18;;;;;;;2.30;1.90;;;;;;;23.84;44.36;101338.03;5034833;28;20391;-54
2022/06/23 04:30:45;;;;;;;2.83;2.05;;;;;;;23.86;44.08;101341.59;5034625;28;20760;-50
2022/06/23 04:33:18;;;;;;;6.28;2.40;;;;;;;23.83;44.15;101344.16;5055544;28;20388;-53
2022/06/23 04:35:49;;;;;;;4.25;2.03;;;;;;;23.84;43.99;101343.28;5042967;28;20383;-48
2022/06/23 04:38:23;;;;;;;3.70;2.45;;;;;;;23.86;44.71;101340.69;5046496;28;20407;-55
2022/06/23 04:40:55;;;;;;;4.03;2.40;;;;;;;23.86;44.30;101356.47;5029944;28;20391;-55
2022/06/23 04:43:29;;;;;;;3.97;2.25;;;;;;;23.85;44.96;101350.31;5049390;28;20399;-52
2022/06/23 04:46:12;;;;;;;4.00;2.20;;;;;;;23.82;44.28;101360.81;5019310;28;20388;-55
2022/06/23 04:48:50;;;;;;;4.70;2.10;;;;;;;23.84;44.72;101359.06;5015156;28;20434;-54
2022/06/23 04:51:22;;;;;;;3.83;2.15;;;;;;;23.88;44.98;101366.16;5033647;28;20430;-54
2022/06/23 04:54:09;;;;;;;2.42;1.90;;;;;;;23.93;44.04;101369.69;5034883;28;20392;-52
2022/06/23 04:56:42;;;;;;;4.25;2.35;;;;;;;23.98;44.49;101366.19;5045227;28;20388;-56
2022/06/23 04:59:29;;;;;;;3.88;2.33;;;;;;;23.99;44.56;101367.94;5028970;28;20411;-55
2022/06/23 05:01:56;;;;;;;2.90;2.30;;;;;;;24.03;43.83;101369.75;5026911;28;20511;-57
2022/06/23 05:04:25;;;;;;;6.90;2.55;;;;;;;24.02;44.36;101368.88;5018150;28;20393;-60
2022/06/23 05:06:53;;;;;;;4.80;3.03;;;;;;;24.04;44.62;101366.25;5020862;28;20381;-53
2022/06/23 05:09:31;;;;;;;4.50;2.72;;;;;;;24.06;44.77;101369.78;5034992;28;20493;-56
2022/06/23 05:12:00;;;;;;;4.65;2.50;;;;;;;24.10;45.28;101374.19;5051012;28;20409;-57
2022/06/23 05:14:54;;;;;;;5.88;2.50;;;;;;;24.14;45.20;101378.56;5033434;28;20401;-57
2022/06/23 05:17:25;;;;;;;7.35;2.80;;;;;;;24.15;44.64;101379.44;5008241;28;20854;-51
2022/06/23 05:20:01;;;;;;;3.67;2.50;;;;;;;24.11;45.21;101373.31;5032909;28;20475;-53
2022/06/23 05:22:32;;;;;;;5.60;2.50;;;;;;;24.12;44.79;101380.31;5055370;28;20475;-56
2022/06/23 05:25:17;;;;;;;4.05;2.40;;;;;;;24.11;45.20;101378.56;5053871;28;20400;-55
2022/06/23 05:27:44;;;;;;;4.93;2.57;;;;;;;24.10;44.69;101387.34;5048246;28;20474;-54
2022/06/23 05:30:16;;;;;;;6.77;2.70;;;;;;;24.10;44.79;101391.69;5024384;28;20877;-56
2022/06/23 05:32:47;;;;;;;3.60;2.30;;;;;;;24.11;45.13;101394.34;5038901;28;20947;-56
2022/06/23 05:35:25;;;;;;;9.20;2.40;;;;;;;24.09;44.36;101385.56;5046672;28;20392;-54
2022/06/23 05:38:14;;;;;;;5.28;2.80;;;;;;;24.07;44.51;101382.06;5045569;28;20504;-57
2022/06/23 05:41:02;;;;;;;5.95;2.67;;;;;;;24.06;45.30;101385.56;5044652;28;20434;-53
2022/06/23 05:43:28;;;;;;;3.23;2.20;;;;;;;24.04;44.83;101376.78;5027119;28;20409;-58
2022/06/23 05:45:57;;;;;;;4.22;2.47;;;;;;;24.03;44.32;101381.16;5032497;28;20413;-54
2022/06/23 05:48:42;;;;;;;4.05;2.33;;;;;;;24.01;45.15;101371.50;5028828;28;20411;-53
2022/06/23 05:51:10;;;;;;;4.97;2.30;;;;;;;24.01;45.37;101382.03;5032986;28;20399;-58
2022/06/23 05:53:41;;;;;;;4.03;2.20;;;;;;;23.99;45.09;101374.06;5051791;28;20498;-54
2022/06/23 05:56:15;;;;;;;2.70;2.00;;;;;;;23.99;45.69;101375.84;5029477;28;20387;-57
2022/06/23 05:58:56;;;;;;;5.22;2.70;;;;;;;23.98;45.44;101376.72;5032621;28;20409;-57
2022/06/23 06:01:46;;;;;;;3.93;2.37;;;;;;;23.99;44.84;101373.22;5042505;28;20408;-56
2022/06/23 06:04:23;;;;;;;4.18;2.13;;;;;;;23.98;44.96;101376.72;5025353;28;20494;-56
2022/06/23 06:06:49;;;;;;;3.90;2.40;;;;;;;23.95;44.87;101376.69;5031789;28;20457;-55
2022/06/23 06:09:40;;;;;;;4.13;2.20;;;;;;;23.98;45.30;101379.34;5039654;28;20454;-55
2022/06/23 06:12:24;;;;;;;3.80;2.30;;;;;;;23.91;45.58;101374.06;5030855;28;20387;-57
2022/06/23 06:15:11;;;;;;;3.97;2.10;;;;;;;23.98;45.14;101381.97;5014816;28;20884;-55
2022/06/23 06:17:39;;;;;;;4.57;2.13;;;;;;;23.93;45.11;101374.94;5013221;28;20496;-55
2022/06/23 06:20:07;;;;;;;4.97;2.20;;;;;;;23.93;45.40;101369.69;5034227;28;20372;-58
2022/06/23 06:22:48;;;;;;;4.60;2.20;;;;;;;23.97;45.27;101374.97;5031353;28;20465;-56
2022/06/23 06:25:27;;;;;;;6.22;3.13;;;;;;;23.76;44.15;101379.19;5049320;28;20414;-58
2022/06/23 06:27:55;;;;;;;7.88;3.72;;;;;;;23.58;44.65;101383.47;5033723;28;20494;-55
2022/06/23 06:30:25;;;;;;;5.55;2.78;;;;;;;23.50;44.53;101379.91;5030979;28;21060;-57
2022/06/23 06:32:55;;;;;;;9.02;3.00;;;;;;;23.64;45.17;101378.25;5036305;28;20459;-58
2022/06/23 06:35:35;;;;;;;8.40;2.70;;;;;;;23.73;44.32;101376.56;5015501;28;20450;-57
2022/06/23 06:38:08;;;;;;;6.03;2.60;;;;;;;23.77;44.71;101378.31;5052514;28;20879;-58
2022/06/23 06:43:59;;;;;;;5.63;2.40;;;;;;;23.84;44.87;101369.59;5045363;28;20838;-57
2022/06/23 06:46:25;;;;;;;5.15;2.42;;;;;;;23.88;44.67;101360.00;5050421;28;20485;-57
2022/06/23 06:48:50;;;;;;;6.18;2.60;;;;;;;23.90;44.65;101359.13;5069607;28;20809;-57
2022/06/23 06:51:21;;;;;;;5.38;2.30;;;;;;;23.92;44.61;101365.28;5032476;28;20739;-58
2022/06/23 06:54:03;;;;;;;4.30;2.30;;;;;;;23.87;44.83;101358.22;5051143;28;20462;-58
2022/06/23 06:56:34;;;;;;;4.15;2.40;;;;;;;23.93;44.69;101353.91;5071347;28;20557;-58
2022/06/23 06:59:12;;;;;;;4.93;2.50;;;;;;;23.92;44.41;101362.66;5051624;28;20470;-59
2022/06/23 07:01:41;;;;;;;5.00;2.30;;;;;;;23.91;45.02;101355.63;5046176;28;20390;-59
2022/06/23 07:04:15;;;;;;;4.30;2.30;;;;;;;23.92;44.50;101360.03;5048980;28;20383;-57
2022/06/23 07:06:44;;;;;;;4.87;2.63;;;;;;;23.92;44.52;101370.56;5035829;28;20459;-57
2022/06/23 07:09:27;;;;;;;4.35;2.30;;;;;;;23.93;44.58;101353.00;5044286;28;20726;-56
2022/06/23 07:12:05;;;;;;;6.10;3.05;;;;;;;23.92;44.74;101362.66;5051784;28;20412;-58
2022/06/23 07:14:43;;;;;;;7.85;2.33;;;;;;;23.89;44.71;101345.97;5055954;28;20477;-58
2022/06/23 07:17:22;;;;;;;13.35;3.40;;;;;;;23.93;44.75;101364.41;5073387;28;20862;-58
2022/06/23 07:19:54;;;;;;;13.38;2.72;;;;;;;23.96;44.57;101365.31;5039179;28;20484;-59
2022/06/23 07:22:46;;;;;;;8.38;2.80;;;;;;;23.95;44.94;101367.03;5051214;28;20400;-58
2022/06/23 07:25:19;;;;;;;5.35;2.58;;;;;;;23.97;44.88;101374.97;5055921;28;20926;-56
2022/06/23 07:28:28;;;;;;;9.20;2.75;;;;;;;23.96;44.79;101368.81;5070799;28;20407;-57
2022/06/23 07:30:57;;;;;;;5.13;2.45;;;;;;;23.95;44.74;101366.19;5043822;28;20409;-58
2022/06/23 07:33:27;;;;;;;6.47;2.83;;;;;;;23.95;44.77;101366.19;5057417;28;20451;-57
2022/06/23 07:35:57;;;;;;;5.93;3.10;;;;;;;23.96;44.32;101365.31;5074393;28;20863;-55
2022/06/23 07:38:47;;;;;;;6.60;2.83;;;;;;;23.96;45.01;101362.69;5056709;28;20861;-58
2022/06/23 07:41:27;;;;;;;7.05;3.15;;;;;;;23.96;44.26;101362.69;5071042;28;20383;-57
2022/06/23 07:43:56;;;;;;;5.37;2.63;;;;;;;23.96;44.76;101354.78;5035441;28;20402;-56
2022/06/23 07:46:22;;;;;;;7.15;2.63;;;;;;;23.95;44.89;101351.25;5062044;28;20391;-58
2022/06/23 07:48:47;;;;;;;7.03;3.00;;;;;;;23.90;44.76;101353.88;5039380;28;20947;-58
2022/06/23 07:51:15;;;;;;;4.83;2.60;;;;;;;23.98;44.18;101360.94;5067826;28;20435;-55
2022/06/23 07:53:44;;;;;;;5.55;2.70;;;;;;;23.95;44.71;101363.53;5034204;28;20382;-59
2022/06/23 07:56:14;;;;;;;5.47;2.50;;;;;;;23.97;44.76;101374.97;5049444;28;20425;-57
2022/06/23 07:58:42;;;;;;;4.15;2.40;;;;;;;23.97;44.41;101374.97;5052182;28;20393;-58
2022/06/23 08:01:15;;;;;;;4.45;2.55;;;;;;;23.97;44.07;101374.97;5071621;28;20404;-57
2022/06/23 08:03:54;;;;;;;4.90;2.45;;;;;;;23.97;44.30;101378.44;5053675;28;20393;-58
2022/06/23 08:06:21;;;;;;;6.05;2.78;;;;;;;23.97;44.33;101374.97;5067965;28;20394;-55
2022/06/23 08:08:48;;;;;;;5.13;2.25;;;;;;;23.96;44.33;101378.47;5069481;28;20393;-58
2022/06/23 08:14:21;;;;;;;5.40;2.45;;;;;;;23.96;44.58;101374.06;5070029;28;20401;-58
2022/06/23 08:16:49;;;;;;;5.03;2.40;;;;;;;23.97;44.11;101375.81;5048300;28;20858;-58
2022/06/23 08:19:41;;;;;;;6.65;2.88;;;;;;;23.97;44.44;101385.47;5070802;28;20453;-56
2022/06/23 08:22:17;;;;;;;6.18;2.80;;;;;;;23.96;44.39;101367.94;5052131;28;20408;-57
2022/06/23 08:24:48;;;;;;;5.50;2.50;;;;;;;23.96;44.81;101373.19;5066411;28;20397;-57
2022/06/23 08:27:18;;;;;;;5.32;2.70;;;;;;;23.87;44.13;101353.88;4925971;22;20920;-62
2022/06/23 08:29:55;;;;;;;3.90;2.70;;;;;;;23.95;44.58;101361.78;5034755;28;20411;-63
2022/06/23 08:32:21;;;;;;;5.23;2.80;;;;;;;23.93;44.44;101364.41;5018175;28;20392;-63
2022/06/23 08:34:56;;;;;;;3.97;2.50;;;;;;;23.99;44.24;101367.94;5033368;28;20410;-64
2022/06/23 08:37:23;;;;;;;6.15;2.65;;;;;;;23.98;45.15;101367.06;5051812;28;20449;-63
2022/06/23 08:39:58;;;;;;;4.97;2.50;;;;;;;23.99;44.95;101360.06;5039377;28;20395;-64
2022/06/23 08:42:45;;;;;;;4.30;2.58;;;;;;;23.96;44.40;101352.16;5049198;28;20396;-64
2022/06/23 08:45:17;;;;;;;4.22;2.63;;;;;;;23.97;43.88;101346.03;5027623;28;20479;-63
2022/06/23 08:47:53;;;;;;;5.38;2.67;;;;;;;23.98;44.23;101340.75;5053107;28;20375;-64
2022/06/23 08:50:42;;;;;;;5.47;2.72;;;;;;;23.97;44.54;101335.50;5016080;28;20403;-64
2022/06/23 08:53:28;;;;;;;4.00;2.60;;;;;;;23.91;43.83;101324.06;5017316;28;20965;-63
2022/06/23 08:55:59;;;;;;;6.22;3.25;;;;;;;23.97;43.88;101343.38;5032402;28;20403;-63
2022/06/23 08:58:37;;;;;;;4.43;2.80;;;;;;;23.98;44.59;101334.63;5018703;28;20757;-63
2022/06/23 09:01:28;;;;;;;5.37;2.80;;;;;;;23.99;44.16;101331.97;5030035;28;20438;-63
2022/06/23 09:04:14;;;;;;;5.43;2.60;;;;;;;24.00;44.54;101338.16;5038437;28;20408;-63
2022/06/23 09:07:04;;;;;;;5.60;3.13;;;;;;;23.89;43.67;101320.56;5027698;28;20400;-63
2022/06/23 09:09:41;;;;;;;4.18;2.60;;;;;;;23.99;43.88;101341.66;5049517;28;20390;-63
2022/06/23 09:12:18;;;;;;;5.07;2.80;;;;;;;23.98;44.20;101334.63;5004743;28;20395;-63
2022/06/23 09:14:54;;;;;;;4.85;2.70;;;;;;;23.97;44.41;101328.47;5020500;28;20395;-64
2022/06/23 09:17:44;;;;;;;4.30;2.80;;;;;;;23.99;44.04;101331.13;5029473;28;20484;-64
2022/06/23 09:20:55;;;;;;;3.50;2.90;;;;;;;24.01;43.75;101330.28;5043842;28;20748;-64
2022/06/23 09:23:45;;;;;;;6.15;3.10;;;;;;;24.01;43.57;101332.03;5008042;28;20406;-64
2022/06/23 09:26:44;;;;;;;5.82;2.92;;;;;;;24.01;43.58;101334.66;5051641;28;20722;-62
2022/06/23 09:29:22;;;;;;;4.68;2.90;;;;;;;23.96;43.59;101325.84;5027991;28;20391;-62
2022/06/23 09:32:00;;;;;;;4.05;2.90;;;;;;;23.88;44.09;101312.63;5032325;28;20852;-62
2022/06/23 09:34:52;;;;;;;5.32;2.83;;;;;;;24.00;43.57;101322.38;5032565;28;20457;-63
2022/06/23 09:37:31;;;;;;;4.60;2.70;;;;;;;24.00;44.18;101327.66;5040308;28;20892;-63
2022/06/23 09:40:07;;;;;;;6.40;3.00;;;;;;;23.99;43.27;101320.59;5019339;28;20395;-63
2022/06/23 09:42:58;;;;;;;4.95;3.10;;;;;;;24.00;43.57;101327.66;5031778;28;20447;-63
2022/06/23 09:45:32;;;;;;;4.85;3.10;;;;;;;24.01;43.52;101324.16;5027817;28;21117;-63
2022/06/23 09:48:20;;;;;;;5.35;2.90;;;;;;;24.01;43.91;101318.88;5034233;28;20387;-62
2022/06/23 09:50:54;;;;;;;4.32;2.95;;;;;;;23.81;43.11;101274.91;4999837;28;20393;-62
2022/06/23 09:53:48;;;;;;;5.20;3.30;;;;;;;24.01;43.37;101308.34;5047715;28;20397;-63
2022/06/23 09:56:28;;;;;;;3.85;2.80;;;;;;;24.01;43.96;101318.88;5039355;28;20426;-64
2022/06/23 09:59:22;;;;;;;5.30;2.92;;;;;;;24.02;43.05;101310.97;5049669;28;20491;-63
2022/06/23 10:02:13;;;;;;;4.38;3.35;;;;;;;24.02;43.25;101316.25;5005264;28;20388;-63
2022/06/23 10:04:53;;;;;;;4.25;2.90;;;;;;;23.92;42.77;101289.00;5025690;28;20402;-63
2022/06/23 10:08:02;;;;;;;4.70;2.80;;;;;;;24.00;43.06;101311.88;5017832;28;20410;-64
2022/06/23 10:10:38;;;;;;;4.53;2.75;;;;;;;24.01;42.70;101311.00;5033815;28;20393;-63
2022/06/23 10:13:18;;;;;;;4.88;2.80;;;;;;;23.93;42.85;101290.75;5044263;28;20482;-62
2022/06/23 10:15:46;;;;;;;4.32;2.90;;;;;;;24.04;43.63;101308.38;5051398;28;20380;-63
2022/06/23 10:18:45;;;;;;;6.85;3.28;;;;;;;24.06;43.59;101304.00;5047225;28;20399;-63
2022/06/23 10:21:15;;;;;;;6.53;2.92;;;;;;;24.06;42.67;101293.47;5049368;28;20450;-66
2022/06/23 10:24:14;;;;;;;5.43;3.07;;;;;;;24.06;43.54;101288.22;5031149;28;20404;-65
2022/06/23 10:26:42;;;;;;;3.95;2.95;;;;;;;24.07;42.37;101287.34;5044846;28;20872;-64
2022/06/23 10:29:43;;;;;;;4.95;2.97;;;;;;;24.05;42.88;101283.81;5051765;28;20395;-64
2022/06/23 10:32:44;;;;;;;5.30;2.93;;;;;;;24.07;43.28;101282.06;5053488;28;20398;-65
2022/06/23 10:35:28;;;;;;;4.72;3.17;;;;;;;24.09;42.55;101285.59;5034779;28;20406;-65
2022/06/23 10:38:24;;;;;;;4.95;3.25;;;;;;;24.08;43.39;101283.81;5049733;28;20423;-65
2022/06/23 10:41:12;;;;;;;5.78;2.80;;;;;;;24.08;43.27;101273.31;5053081;28;20374;-65
2022/06/23 10:43:59;;;;;;;4.32;2.90;;;;;;;24.09;42.74;101274.16;5031077;28;20960;-66
2022/06/23 10:46:40;;;;;;;4.55;3.13;;;;;;;24.08;43.09;101270.66;5020065;28;20479;-64
2022/06/23 10:49:22;;;;;;;5.82;2.90;;;;;;;24.10;42.10;101263.66;5016247;28;20390;-65
2022/06/23 10:51:50;;;;;;;4.43;2.97;;;;;;;24.12;42.37;101269.81;5025211;28;20411;-63
2022/06/23 10:54:46;;;;;;;6.45;2.90;;;;;;;24.12;41.81;101261.91;5027474;28;20907;-64
2022/06/23 10:57:14;;;;;;;4.50;3.35;;;;;;;24.13;42.45;101261.03;5042024;28;20393;-64
2022/06/23 11:00:10;;;;;;;4.03;2.97;;;;;;;24.13;42.16;101260.13;5037801;28;20395;-64
2022/06/23 11:02:41;;;;;;;4.20;2.70;;;;;;;24.10;42.43;101255.75;5005511;28;20753;-64
2022/06/23 11:05:37;;;;;;;4.45;3.00;;;;;;;24.13;42.35;101253.13;5049848;28;20449;-66
2022/06/23 11:08:15;;;;;;;4.20;3.00;;;;;;;24.14;42.16;101251.38;5032350;28;20403;-67
2022/06/23 11:11:03;;;;;;;4.28;2.80;;;;;;;24.14;41.71;101254.91;5031535;28;20401;-67
2022/06/23 11:13:47;;;;;;;5.25;2.97;;;;;;;24.16;41.49;101244.34;5031113;28;20399;-65
2022/06/23 11:16:23;;;;;;;4.22;2.80;;;;;;;24.15;42.62;101254.03;5048360;28;20391;-63
2022/06/23 11:19:04;;;;;;;5.68;2.85;;;;;;;24.17;41.77;101247.00;5029628;28;20427;-61
2022/06/23 11:22:10;;;;;;;4.18;2.58;;;;;;;24.18;41.86;101247.88;5049116;28;20466;-59
2022/06/23 11:24:51;;;;;;;4.00;2.90;;;;;;;24.07;41.25;101225.03;5031356;28;20932;-59
2022/06/23 11:27:44;;;;;;;3.63;2.95;;;;;;;24.18;42.54;101254.03;5050873;28;20389;-62
2022/06/23 11:30:24;;;;;;;4.13;2.85;;;;;;;24.19;41.92;101245.25;5046308;28;20402;-58
2022/06/23 11:33:14;;;;;;;3.92;2.80;;;;;;;24.19;41.65;101240.00;5046221;28;20513;-60
2022/06/23 11:35:46;;;;;;;3.33;2.85;;;;;;;24.19;42.06;101242.63;5040940;28;20376;-60
2022/06/23 11:38:48;;;;;;;4.47;3.00;;;;;;;24.17;41.37;101231.22;5045459;28;20464;-60
2022/06/23 11:41:32;;;;;;;4.47;2.93;;;;;;;24.20;42.08;101236.50;5043636;28;20415;-61
2022/06/23 11:44:23;;;;;;;5.07;3.10;;;;;;;24.18;40.92;101235.59;5048592;28;20447;-60
2022/06/23 11:46:56;;;;;;;4.38;2.90;;;;;;;24.19;41.65;101233.84;5020241;28;20396;-59
2022/06/23 11:49:39;;;;;;;3.07;2.70;;;;;;;24.18;41.16;101238.25;5031794;28;20393;-60
2022/06/23 11:52:14;;;;;;;4.17;2.93;;;;;;;24.15;41.63;101230.34;5043956;28;20462;-60
2022/06/23 11:54:58;;;;;;;4.78;2.60;;;;;;;24.19;41.72;101224.22;5040591;28;20392;-60
2022/06/23 11:57:33;;;;;;;4.35;2.85;;;;;;;24.19;41.77;101224.22;5029099;28;20415;-60
2022/06/23 12:00:19;;;;;;;4.28;2.90;;;;;;;24.20;41.64;101236.50;5054097;28;20736;-60
2022/06/23 12:03:20;;;;;;;4.25;2.75;;;;;;;24.21;41.89;101229.47;5032797;28;20558;-62
2022/06/23 12:06:31;;;;;;;4.40;2.90;;;;;;;24.20;41.44;101220.69;5013055;28;20391;-59
2022/06/23 12:09:06;;;;;;;4.43;2.93;;;;;;;24.21;41.21;101222.47;5016792;28;20387;-59
2022/06/23 12:11:32;;;;;;;4.38;2.95;;;;;;;24.23;41.49;101218.94;5019069;28;20813;-59
2022/06/23 12:14:02;;;;;;;4.22;2.63;;;;;;;24.14;41.69;101204.91;5047515;28;20484;-59
2022/06/23 12:16:28;;;;;;;4.68;2.95;;;;;;;24.21;41.20;101206.66;5032024;28;20476;-60
2022/06/23 12:19:07;;;;;;;3.93;2.80;;;;;;;24.23;42.23;101204.03;5023918;28;20498;-60
2022/06/23 12:21:44;;;;;;;5.05;3.38;;;;;;;24.26;40.64;101203.16;5051794;28;20378;-59
2022/06/23 12:24:22;;;;;;;6.57;3.00;;;;;;;24.28;41.37;101201.41;5034992;28;20403;-59
2022/06/23 12:27:00;;;;;;;4.47;2.72;;;;;;;24.27;40.84;101194.38;5051122;28;20941;-60
2022/06/23 12:29:57;;;;;;;4.85;2.70;;;;;;;24.25;41.68;101185.63;5017607;28;20396;-60
2022/06/23 12:32:31;;;;;;;5.68;3.13;;;;;;;24.27;40.52;101194.38;5042127;28;20862;-61